Decoded Metar for KRUE (RUSSELLVILLE in AR, USA) (IATA:RUE) | Meteo·Mobile Aviation Weather
aviador You're here:

KRUE Decoded Metar

RUSSELLVILLE in AR, USA
Report Time2019-07-21 15:53:00
UTC Time2019-07-21 16:52:54
Flight Rules vfr VFR
Wind240° at 05 kt
W.Decomp.*RWY 25: 4.9 kt HW 1.1 kt LCW
Visibility9999 m
Phenomena:N/A
Clouds:N/A
Expected CloudBase > 2,800 ft AGL from Temp-Dew spread
CeilingNone
Temp31°C (ISA +17)
Dew Point24°C (66% RH)
Heat Index36.4°C
QNH1015 hPa
Density Alt2,618 ft
Elevation377 ft
Report Wrong Elevation
Raw Report
KRUE 211553Z AUTO 24005KT 10SM CLR 31/24 A2998 RMK AO2 SLP144
T03110244=

Extra information for KRUE:More info

Metar Taf Metar & Taf Last 4 Metars F.Rules Stats Wind Profile Meteogram Temp Stats Airport Information Weather charts Add Link Nearby VenuesMetar ALERT Operation Metar Decoded Social comments

AIRNAV info for KRUE